Time;durP1;ratioP1;P1;durP2;ratioP2;P2;SDS_P1;SDS_P2;PMS_P1;PMS_P2;Temp;Humidity;BMP_temperature;BMP_pressure;BME280_temperature;BME280_humidity;BME280_pressure;Samples;Min_cycle;Max_cycle;Signal;HPM_P1;HPM_P2
2022/03/02 00:00:13;;;;;;;14.53;10.83;;;;;;;4.14;43.99;96386.66;5032120;28;20222;-80
2022/03/02 00:02:41;;;;;;;14.23;11.17;;;;;;;4.03;44.72;96386.66;5033482;28;20935;-80
2022/03/02 00:05:09;;;;;;;15.27;10.70;;;;;;;4.04;44.49;96389.06;5034220;28;20233;-80
2022/03/02 00:07:36;;;;;;;15.63;11.70;;;;;;;4.04;45.04;96383.97;5035697;28;20198;-81
2022/03/02 00:10:03;;;;;;;14.93;11.20;;;;;;;3.56;45.68;96387.69;5034053;28;20237;-79
2022/03/02 00:12:30;;;;;;;14.27;11.17;;;;;;;3.36;46.11;96391.69;5034846;28;20678;-81
2022/03/02 00:14:56;;;;;;;12.97;10.43;;;;;;;3.41;46.15;96382.00;5035058;28;20256;-80
2022/03/02 00:17:23;;;;;;;14.17;9.90;;;;;;;3.37;45.81;96378.84;5034892;28;20203;-81
2022/03/02 00:19:51;;;;;;;13.40;9.57;;;;;;;3.38;45.66;96370.28;5033956;28;20240;-80
2022/03/02 00:22:18;;;;;;;13.27;9.07;;;;;;;3.45;46.15;96363.84;5034271;28;20209;-80
2022/03/02 00:24:50;;;;;;;13.80;9.33;;;;;;;3.52;45.86;96360.81;5034332;28;20280;-79
2022/03/02 00:27:17;;;;;;;11.40;8.93;;;;;;;3.59;45.49;96359.44;5034011;28;20198;-80
2022/03/02 00:29:44;;;;;;;10.47;7.87;;;;;;;3.56;45.80;96349.47;5033154;28;20234;-80
2022/03/02 00:32:10;;;;;;;11.70;8.50;;;;;;;3.59;46.19;96346.72;5033145;28;20209;-81
2022/03/02 00:34:37;;;;;;;10.40;7.93;;;;;;;3.54;46.30;96351.34;5033807;28;20409;-80
2022/03/02 00:37:05;;;;;;;11.90;8.07;;;;;;;3.60;46.17;96343.25;5033529;28;20202;-80
2022/03/02 00:39:31;;;;;;;10.90;8.00;;;;;;;3.65;46.12;96343.72;5033166;28;20209;-80
2022/03/02 00:41:57;;;;;;;10.07;8.10;;;;;;;3.69;46.64;96338.25;5033016;28;20225;-81
2022/03/02 00:44:24;;;;;;;11.13;7.57;;;;;;;3.68;46.32;96348.56;5033078;28;20222;-81
2022/03/02 00:46:51;;;;;;;10.63;7.63;;;;;;;3.75;46.22;96339.53;5033692;28;20640;-81
2022/03/02 00:49:18;;;;;;;10.80;7.87;;;;;;;3.69;46.97;96337.44;5033721;28;20229;-81
2022/03/02 00:51:44;;;;;;;10.87;8.60;;;;;;;3.46;46.83;96339.19;5032814;28;20237;-81
2022/03/02 00:54:13;;;;;;;11.70;8.13;;;;;;;3.43;47.16;96337.69;5033531;28;20443;-80
2022/03/02 00:56:39;;;;;;;9.50;7.60;;;;;;;3.40;46.76;96337.91;5033187;28;20201;-80
2022/03/02 00:59:05;;;;;;;10.40;7.73;;;;;;;3.36;47.09;96338.22;5033213;28;20202;-81
2022/03/02 01:01:32;;;;;;;9.90;7.53;;;;;;;3.43;47.43;96336.88;5032812;28;20244;-80
2022/03/02 01:03:58;;;;;;;15.47;7.93;;;;;;;3.47;46.95;96325.50;5033324;28;20233;-81
2022/03/02 01:06:25;;;;;;;9.50;7.53;;;;;;;3.35;47.11;96329.78;5032690;28;20209;-80
2022/03/02 01:08:51;;;;;;;12.37;8.30;;;;;;;3.43;46.69;96326.69;5033759;28;20735;-80
2022/03/02 01:11:19;;;;;;;9.77;7.73;;;;;;;3.49;46.75;96318.56;5032419;28;20229;-81
2022/03/02 01:13:47;;;;;;;8.43;7.53;;;;;;;3.55;46.53;96318.13;5033139;28;20732;-80
2022/03/02 01:16:14;;;;;;;13.30;7.63;;;;;;;3.59;46.79;96327.16;5033071;28;20803;-80
2022/03/02 01:18:40;;;;;;;10.87;7.20;;;;;;;3.60;46.95;96338.16;5033323;28;20673;-81
2022/03/02 01:21:07;;;;;;;7.97;6.67;;;;;;;3.42;46.64;96327.59;5032232;28;20233;-80
2022/03/02 01:23:34;;;;;;;8.07;6.70;;;;;;;3.30;46.93;96328.50;5033005;28;20750;-80
2022/03/02 01:26:00;;;;;;;8.17;6.70;;;;;;;3.33;46.78;96344.34;5032896;28;20274;-80
2022/03/02 01:28:28;;;;;;;9.43;6.97;;;;;;;3.31;46.69;96340.31;5032564;28;20209;-80
2022/03/02 01:30:54;;;;;;;9.60;7.33;;;;;;;3.28;47.03;96348.16;5032609;28;20238;-81
2022/03/02 01:33:21;;;;;;;9.37;7.37;;;;;;;3.32;46.40;96342.75;5032962;28;20599;-81
2022/03/02 01:35:47;;;;;;;9.70;7.33;;;;;;;3.33;46.45;96334.19;5033402;28;20278;-81
2022/03/02 01:38:14;;;;;;;10.30;7.40;;;;;;;3.26;46.81;96325.41;5032459;28;20271;-81
2022/03/02 01:40:41;;;;;;;8.13;7.20;;;;;;;3.20;46.70;96323.28;5032199;28;20222;-80
2022/03/02 01:43:07;;;;;;;9.03;7.43;;;;;;;3.10;47.10;96315.50;5031972;28;20206;-81
2022/03/02 01:45:35;;;;;;;11.53;8.00;;;;;;;2.81;48.10;96316.84;5033092;28;20229;-81
2022/03/02 01:48:03;;;;;;;11.50;7.80;;;;;;;2.59;48.78;96317.56;5033089;28;20191;-82
2022/03/02 01:50:30;;;;;;;12.53;8.17;;;;;;;2.47;49.53;96310.81;5033046;28;20246;-81
2022/03/02 01:52:57;;;;;;;10.60;8.00;;;;;;;2.68;48.16;96306.75;5033395;28;20211;-81
2022/03/02 01:55:23;;;;;;;10.30;8.40;;;;;;;2.64;48.98;96302.81;5033421;28;20225;-80
2022/03/02 01:57:51;;;;;;;9.73;8.10;;;;;;;2.38;49.88;96291.13;5033612;28;20202;-81
2022/03/02 02:00:20;;;;;;;13.53;7.67;;;;;;;2.39;49.57;96291.03;5032110;28;20232;-81
2022/03/02 02:02:48;;;;;;;8.37;7.47;;;;;;;2.39;49.33;96297.84;5032480;28;20218;-80
2022/03/02 02:05:16;;;;;;;10.30;7.57;;;;;;;2.54;49.22;96301.00;5032390;28;20245;-79
2022/03/02 02:07:43;;;;;;;10.13;7.83;;;;;;;2.66;49.23;96290.78;5033045;28;20681;-80
2022/03/02 02:10:11;;;;;;;10.37;7.90;;;;;;;2.69;48.92;96287.22;5034070;28;20260;-81
2022/03/02 02:12:38;;;;;;;10.47;7.93;;;;;;;2.63;49.80;96288.47;5033903;28;20202;-81
2022/03/02 02:15:06;;;;;;;9.37;7.57;;;;;;;2.63;49.15;96280.84;5032011;28;20222;-82
2022/03/02 02:17:32;;;;;;;11.00;7.63;;;;;;;2.59;49.40;96281.16;5036023;28;20280;-80
2022/03/02 02:20:00;;;;;;;9.03;7.43;;;;;;;2.69;49.19;96269.44;5035656;28;20238;-80
2022/03/02 02:22:28;;;;;;;11.37;7.87;;;;;;;2.69;49.17;96271.97;5035243;28;20681;-80
2022/03/02 02:24:55;;;;;;;9.97;8.13;;;;;;;2.71;49.57;96278.53;5035542;28;20233;-81
2022/03/02 02:27:21;;;;;;;8.97;7.40;;;;;;;2.67;49.66;96286.53;5035919;28;20246;-80
2022/03/02 02:29:49;;;;;;;10.00;7.63;;;;;;;2.69;49.08;96282.13;5034934;28;20233;-81
2022/03/02 02:32:17;;;;;;;10.83;7.90;;;;;;;2.57;49.73;96283.00;5035075;28;20287;-80
2022/03/02 02:34:43;;;;;;;11.57;7.93;;;;;;;2.49;49.92;96285.31;5035836;28;20226;-82
2022/03/02 02:37:10;;;;;;;9.10;7.43;;;;;;;2.47;49.80;96282.06;5035367;28;20218;-80
2022/03/02 02:39:37;;;;;;;8.57;7.47;;;;;;;2.50;49.76;96277.56;5036142;28;20202;-81
2022/03/02 02:42:05;;;;;;;9.80;7.73;;;;;;;2.60;48.97;96270.06;5035519;28;20594;-81
2022/03/02 02:44:32;;;;;;;9.63;7.67;;;;;;;2.70;49.06;96276.91;5034955;28;20233;-81
2022/03/02 02:47:00;;;;;;;10.87;8.10;;;;;;;2.71;49.10;96267.56;5035661;28;20580;-80
2022/03/02 02:49:26;;;;;;;11.10;8.03;;;;;;;2.57;49.03;96263.47;5034546;28;20202;-80
2022/03/02 02:51:54;;;;;;;17.10;8.83;;;;;;;2.29;50.90;96271.47;5034581;28;20236;-81
2022/03/02 02:54:20;;;;;;;10.10;7.70;;;;;;;2.28;49.79;96264.78;5034817;28;20257;-80
2022/03/02 02:56:48;;;;;;;9.13;7.43;;;;;;;2.27;49.92;96251.25;5034831;28;20209;-81
2022/03/02 02:59:15;;;;;;;9.30;8.10;;;;;;;2.10;50.32;96251.63;5035136;28;20194;-81
2022/03/02 03:01:41;;;;;;;10.20;7.97;;;;;;;2.09;50.27;96252.56;5033810;28;20229;-81
2022/03/02 03:04:09;;;;;;;11.83;7.97;;;;;;;2.04;51.00;96240.19;5034618;28;20229;-79
2022/03/02 03:06:35;;;;;;;12.07;7.93;;;;;;;2.11;50.34;96244.84;5034915;28;20206;-81
2022/03/02 03:09:02;;;;;;;10.17;7.77;;;;;;;2.25;50.48;96245.47;5034900;28;20776;-81
2022/03/02 03:11:28;;;;;;;8.97;7.50;;;;;;;2.34;49.84;96249.06;5033754;28;20634;-81
2022/03/02 03:13:56;;;;;;;10.27;7.30;;;;;;;2.39;50.35;96242.75;5033898;28;20766;-80
2022/03/02 03:16:23;;;;;;;9.60;7.83;;;;;;;2.36;50.47;96244.69;5035413;28;20202;-80
2022/03/02 03:18:49;;;;;;;9.90;8.00;;;;;;;2.23;50.56;96251.56;5034969;28;20210;-81
2022/03/02 03:21:16;;;;;;;10.60;7.60;;;;;;;2.19;50.73;96257.78;5034578;28;20253;-80
2022/03/02 03:23:42;;;;;;;9.07;7.50;;;;;;;2.23;50.37;96260.00;5035163;28;20226;-81
2022/03/02 03:26:09;;;;;;;11.47;7.53;;;;;;;2.31;50.57;96256.94;5034926;28;20206;-80
2022/03/02 03:28:35;;;;;;;9.70;7.43;;;;;;;2.30;50.19;96252.78;5034444;28;20205;-81
2022/03/02 03:31:03;;;;;;;11.37;8.03;;;;;;;2.12;50.82;96256.63;5033878;28;20234;-81
2022/03/02 03:33:29;;;;;;;10.37;8.40;;;;;;;1.88;52.12;96252.34;5034442;28;20218;-81
2022/03/02 03:35:56;;;;;;;13.03;7.53;;;;;;;1.76;52.33;96250.63;5034085;28;20203;-81
2022/03/02 03:38:22;;;;;;;10.33;7.43;;;;;;;1.78;52.32;96255.59;5034376;28;20221;-80
2022/03/02 03:40:49;;;;;;;10.63;8.20;;;;;;;1.88;51.68;96251.50;5034074;28;20840;-81
2022/03/02 03:43:15;;;;;;;11.47;7.87;;;;;;;1.87;52.24;96249.91;5033704;28;20202;-80
2022/03/02 03:45:42;;;;;;;10.50;7.43;;;;;;;1.99;51.68;96247.31;5034629;28;20202;-81
2022/03/02 03:48:10;;;;;;;11.00;7.83;;;;;;;2.14;51.12;96247.13;5033943;28;20201;-81
2022/03/02 03:50:37;;;;;;;11.57;7.50;;;;;;;2.15;51.00;96241.13;5032922;28;20642;-81
2022/03/02 03:53:03;;;;;;;10.23;7.93;;;;;;;2.08;51.21;96243.31;5033857;28;20228;-80
2022/03/02 03:55:30;;;;;;;9.53;7.77;;;;;;;2.04;51.08;96241.91;5033732;28;20198;-80
2022/03/02 03:57:56;;;;;;;9.63;7.93;;;;;;;2.16;50.96;96242.75;5033608;28;20228;-82
2022/03/02 04:00:23;;;;;;;10.03;7.30;;;;;;;2.24;50.97;96238.75;5032690;28;20225;-81
2022/03/02 04:02:49;;;;;;;9.43;7.90;;;;;;;2.31;50.84;96242.47;5033856;28;20206;-80
2022/03/02 04:05:17;;;;;;;11.17;8.30;;;;;;;2.35;50.80;96233.72;5033771;28;20291;-81
2022/03/02 04:07:44;;;;;;;9.60;7.17;;;;;;;2.36;51.40;96232.78;5034211;28;20535;-80
2022/03/02 04:10:11;;;;;;;11.43;7.83;;;;;;;2.35;50.64;96237.97;5033247;28;20230;-81
2022/03/02 04:12:37;;;;;;;9.60;7.07;;;;;;;2.31;51.18;96241.69;5034497;28;20209;-81
2022/03/02 04:15:05;;;;;;;9.37;7.30;;;;;;;2.34;50.88;96233.81;5033515;28;20233;-81
2022/03/02 04:17:32;;;;;;;9.30;6.90;;;;;;;2.40;50.83;96234.19;5033779;28;20209;-81
2022/03/02 04:19:58;;;;;;;10.90;7.07;;;;;;;2.42;50.83;96239.19;5032422;28;20202;-80
2022/03/02 04:22:26;;;;;;;9.33;7.50;;;;;;;2.47;50.46;96229.50;5033742;28;20202;-80
2022/03/02 04:24:52;;;;;;;8.07;6.83;;;;;;;2.43;49.78;96223.81;5033307;28;20226;-80
2022/03/02 04:27:19;;;;;;;8.67;7.00;;;;;;;2.43;50.38;96220.47;5033291;28;20204;-81
2022/03/02 04:29:45;;;;;;;8.43;6.83;;;;;;;2.34;50.15;96211.75;5032904;28;20210;-80
2022/03/02 04:32:12;;;;;;;10.73;6.77;;;;;;;2.33;49.95;96211.88;5032804;28;20264;-81
2022/03/02 04:34:38;;;;;;;10.13;6.97;;;;;;;2.34;50.44;96208.41;5033479;28;20233;-80
2022/03/02 04:37:05;;;;;;;9.17;7.10;;;;;;;2.37;50.02;96208.19;5033264;28;20201;-79
2022/03/02 04:39:33;;;;;;;7.77;6.70;;;;;;;2.30;50.32;96200.22;5032507;28;20217;-80
2022/03/02 04:42:00;;;;;;;9.20;6.43;;;;;;;2.38;50.25;96197.13;5032523;28;20237;-80
2022/03/02 04:44:26;;;;;;;8.27;6.53;;;;;;;2.42;50.22;96194.25;5033432;28;20240;-79
2022/03/02 04:46:53;;;;;;;8.70;6.63;;;;;;;2.42;49.63;96195.97;5033459;28;20202;-80
2022/03/02 04:49:20;;;;;;;8.53;6.30;;;;;;;2.41;49.75;96192.63;5033274;28;20574;-81
2022/03/02 04:51:48;;;;;;;7.90;6.67;;;;;;;2.49;49.38;96197.16;5031556;28;20288;-81
2022/03/02 04:56:58;;;;;;;8.67;6.20;;;;;;;2.45;49.29;96190.69;5032840;28;20742;-81
2022/03/02 04:59:24;;;;;;;7.13;6.03;;;;;;;2.42;49.03;96185.81;5033478;28;20198;-81
2022/03/02 05:01:51;;;;;;;9.73;6.47;;;;;;;2.53;48.58;96185.81;5032065;28;20226;-80
2022/03/02 05:04:17;;;;;;;9.40;6.70;;;;;;;2.51;48.77;96182.59;5032606;28;20234;-80
2022/03/02 05:06:44;;;;;;;7.53;6.60;;;;;;;2.47;49.05;96188.84;5032619;28;20201;-81
2022/03/02 05:09:10;;;;;;;6.90;6.20;;;;;;;2.50;48.72;96187.81;5032476;28;20241;-81
2022/03/02 05:11:37;;;;;;;8.13;6.10;;;;;;;2.42;49.17;96191.69;5032221;28;20230;-81
2022/03/02 05:14:04;;;;;;;10.27;6.37;;;;;;;2.39;48.82;96183.50;5033410;28;20226;-81
2022/03/02 05:16:31;;;;;;;7.77;6.27;;;;;;;2.46;49.20;96183.88;5032973;28;20213;-80
2022/03/02 05:18:57;;;;;;;7.47;6.70;;;;;;;2.40;49.56;96185.91;5032899;28;20206;-80
2022/03/02 05:21:24;;;;;;;7.73;6.80;;;;;;;2.51;49.42;96190.22;5032461;28;20665;-80
2022/03/02 05:23:50;;;;;;;8.10;6.70;;;;;;;2.61;49.09;96195.44;5032181;28;20222;-81
2022/03/02 05:26:17;;;;;;;8.70;6.87;;;;;;;2.62;49.96;96190.25;5032497;28;20206;-81
2022/03/02 05:28:43;;;;;;;8.77;6.53;;;;;;;2.61;49.60;96188.63;5032445;28;20202;-81
2022/03/02 05:31:11;;;;;;;9.90;7.37;;;;;;;2.52;50.04;96186.75;5031636;28;20229;-79
2022/03/02 05:33:37;;;;;;;10.83;6.83;;;;;;;2.55;49.91;96180.63;5032194;28;20228;-81
2022/03/02 05:36:04;;;;;;;7.80;6.73;;;;;;;2.59;49.46;96184.56;5032964;28;20205;-80
2022/03/02 05:38:31;;;;;;;8.60;6.43;;;;;;;2.59;49.86;96185.38;5032320;28;20206;-81
2022/03/02 05:40:58;;;;;;;10.47;6.47;;;;;;;2.47;49.62;96185.47;5031626;28;20233;-81
2022/03/02 05:43:24;;;;;;;8.47;6.83;;;;;;;2.41;50.25;96189.28;5032391;28;20229;-80
2022/03/02 05:45:51;;;;;;;10.07;6.77;;;;;;;2.27;50.90;96197.09;5032603;28;20213;-81
2022/03/02 05:48:18;;;;;;;8.03;6.77;;;;;;;2.32;50.58;96188.19;5033131;28;20209;-81
2022/03/02 05:50:45;;;;;;;8.03;6.80;;;;;;;2.36;49.77;96184.53;5029823;28;20234;-81
2022/03/02 05:53:11;;;;;;;8.47;6.40;;;;;;;2.45;49.86;96184.78;5034788;28;20198;-80
2022/03/02 05:55:38;;;;;;;11.50;7.17;;;;;;;2.50;49.45;96183.53;5036699;28;20210;-80
2022/03/02 05:58:04;;;;;;;8.93;6.77;;;;;;;2.40;50.16;96177.50;5038115;28;20205;-81
2022/03/02 06:00:31;;;;;;;7.53;6.37;;;;;;;2.37;49.27;96172.63;5038756;28;20759;-80
2022/03/02 06:02:57;;;;;;;6.97;5.60;;;;;;;2.31;48.78;96170.56;5039044;28;20323;-81
2022/03/02 06:05:25;;;;;;;8.13;5.97;;;;;;;2.33;49.49;96176.31;5038864;28;20252;-80
2022/03/02 06:07:51;;;;;;;7.80;5.83;;;;;;;2.36;48.86;96174.34;5037994;28;20206;-80
2022/03/02 06:10:19;;;;;;;7.20;6.10;;;;;;;2.32;48.87;96161.97;5037889;28;20227;-81
2022/03/02 06:12:46;;;;;;;8.40;6.30;;;;;;;2.37;49.46;96175.97;5038089;28;20222;-80
2022/03/02 06:15:14;;;;;;;8.03;6.20;;;;;;;2.45;49.51;96180.50;5038540;28;20226;-80
2022/03/02 06:17:41;;;;;;;7.63;6.10;;;;;;;2.34;48.84;96176.19;5036075;28;20228;-81
2022/03/02 06:20:10;;;;;;;7.77;5.30;;;;;;;2.40;48.50;96168.13;5034856;28;20257;-80
2022/03/02 06:22:38;;;;;;;12.07;6.27;;;;;;;2.46;48.96;96171.16;5036180;28;20198;-81
2022/03/02 06:25:07;;;;;;;10.07;6.10;;;;;;;2.58;48.39;96170.25;5035887;28;20224;-81
2022/03/02 06:27:34;;;;;;;8.23;5.60;;;;;;;2.65;48.08;96169.69;5035558;28;20659;-81
2022/03/02 06:30:01;;;;;;;14.73;6.30;;;;;;;2.69;47.93;96170.28;5029133;28;20276;-79
2022/03/02 06:32:28;;;;;;;8.70;5.73;;;;;;;2.72;47.71;96172.56;5017798;28;20223;-80
2022/03/02 06:34:55;;;;;;;6.90;5.90;;;;;;;2.77;47.74;96168.78;5035254;28;20229;-81
2022/03/02 06:37:22;;;;;;;9.03;5.37;;;;;;;2.81;47.93;96169.34;5035518;28;20217;-79
2022/03/02 06:39:50;;;;;;;8.07;5.63;;;;;;;2.85;47.59;96173.28;5035019;28;20202;-81
2022/03/02 06:42:19;;;;;;;8.70;5.63;;;;;;;2.90;47.81;96185.66;5034809;28;20639;-81
2022/03/02 06:44:50;;;;;;;6.13;5.07;;;;;;;3.14;47.15;96183.81;5035049;28;20225;-82
2022/03/02 06:47:20;;;;;;;6.97;5.60;;;;;;;3.29;47.27;96182.63;5034832;28;20213;-82
2022/03/02 06:50:00;;;;;;;6.97;5.60;;;;;;;3.39;47.74;96185.31;5035044;28;20236;-81
2022/03/02 06:52:33;;;;;;;6.00;5.40;;;;;;;3.47;47.59;96185.50;5034836;28;20249;-81
2022/03/02 06:55:03;;;;;;;9.00;5.30;;;;;;;3.24;47.05;96174.56;5035711;28;20233;-81
2022/03/02 06:57:30;;;;;;;7.93;6.23;;;;;;;3.28;47.13;96173.38;5034741;28;20202;-80
2022/03/02 07:00:02;;;;;;;6.50;5.67;;;;;;;3.34;47.24;96178.00;5034663;28;20206;-80
2022/03/02 07:02:35;;;;;;;7.17;5.43;;;;;;;3.42;46.87;96183.34;5033845;28;20688;-81
2022/03/02 07:05:05;;;;;;;8.77;5.57;;;;;;;3.55;46.81;96185.75;5034048;28;20264;-81
2022/03/02 07:07:32;;;;;;;9.13;5.80;;;;;;;3.58;48.03;96187.25;5034793;28;20201;-81
2022/03/02 07:10:00;;;;;;;11.37;6.37;;;;;;;3.69;47.70;96195.66;5033722;28;20198;-80
2022/03/02 07:12:29;;;;;;;8.10;5.80;;;;;;;3.77;47.82;96190.78;5035174;28;20253;-81
2022/03/02 07:14:56;;;;;;;15.60;6.37;;;;;;;3.89;47.49;96188.19;5033900;28;20236;-81
2022/03/02 07:17:22;;;;;;;9.43;6.30;;;;;;;4.04;46.88;96187.00;5034985;28;20561;-79
2022/03/02 07:19:49;;;;;;;13.60;6.27;;;;;;;4.10;45.98;96183.97;5033516;28;20201;-81
2022/03/02 07:22:19;;;;;;;9.87;5.90;;;;;;;4.01;45.87;96182.97;5034257;28;20631;-80
2022/03/02 07:24:51;;;;;;;10.40;6.57;;;;;;;4.06;45.82;96180.84;5033272;28;20241;-81
2022/03/02 07:27:19;;;;;;;10.47;5.87;;;;;;;4.16;45.79;96183.47;5034189;28;20206;-80
2022/03/02 07:29:50;;;;;;;8.37;6.30;;;;;;;4.38;45.55;96185.13;5033202;28;20210;-81
2022/03/02 07:32:21;;;;;;;8.10;6.20;;;;;;;4.64;45.13;96183.00;5033371;28;20221;-80
2022/03/02 07:34:54;;;;;;;6.90;6.20;;;;;;;5.16;44.68;96174.41;5033568;28;20822;-82
2022/03/02 07:37:21;;;;;;;9.00;5.70;;;;;;;5.31;43.89;96172.31;5033516;28;20210;-81
2022/03/02 07:39:48;;;;;;;8.17;6.37;;;;;;;5.32;43.71;96173.91;5033126;28;20198;-80
2022/03/02 07:42:15;;;;;;;9.80;6.07;;;;;;;5.63;43.75;96170.34;5033239;28;20267;-81
2022/03/02 07:44:42;;;;;;;9.73;6.47;;;;;;;6.02;42.66;96161.03;5033493;28;20648;-79
2022/03/02 07:47:10;;;;;;;10.43;6.57;;;;;;;6.33;42.33;96158.34;5033070;28;20305;-80
2022/03/02 07:49:37;;;;;;;8.80;6.50;;;;;;;6.56;41.94;96155.31;5033536;28;20201;-81
2022/03/02 07:52:05;;;;;;;11.60;6.80;;;;;;;6.74;41.25;96157.97;5033468;28;20705;-79
2022/03/02 07:54:37;;;;;;;9.53;6.93;;;;;;;6.78;40.37;96140.59;5033091;28;20744;-80
2022/03/02 07:57:04;;;;;;;13.40;7.60;;;;;;;6.83;40.08;96149.47;5033849;28;20198;-81
2022/03/02 07:59:34;;;;;;;9.13;6.63;;;;;;;6.98;39.13;96141.34;5034042;28;20280;-82
2022/03/02 08:02:03;;;;;;;8.87;5.73;;;;;;;6.97;39.63;96143.09;5035158;28;20221;-80
2022/03/02 08:04:32;;;;;;;7.20;6.00;;;;;;;6.82;39.53;96142.75;5035016;28;20237;-80
2022/03/02 08:06:59;;;;;;;8.80;6.13;;;;;;;6.54;39.76;96146.19;5035421;28;20202;-80
2022/03/02 08:09:25;;;;;;;9.97;6.37;;;;;;;6.36;40.17;96140.16;5035209;28;20202;-80
2022/03/02 08:11:51;;;;;;;9.87;6.30;;;;;;;6.61;39.95;96138.75;5034920;28;20414;-81
2022/03/02 08:14:18;;;;;;;7.60;6.10;;;;;;;6.87;39.64;96144.91;5034077;28;20229;-80
2022/03/02 08:16:46;;;;;;;10.17;6.10;;;;;;;6.78;38.51;96130.38;5032902;28;20206;-81
2022/03/02 08:19:12;;;;;;;11.80;6.57;;;;;;;6.50;39.07;96148.22;5033417;28;20206;-80
2022/03/02 08:21:43;;;;;;;9.10;6.50;;;;;;;6.73;38.97;96147.91;5031969;28;20268;-81
2022/03/02 08:24:13;;;;;;;7.03;5.73;;;;;;;6.99;38.50;96148.88;5032986;28;20222;-81
2022/03/02 08:26:41;;;;;;;9.43;5.87;;;;;;;7.31;36.94;96142.56;5032824;28;20297;-81
2022/03/02 08:29:11;;;;;;;8.47;4.80;;;;;;;7.84;35.67;96138.34;5033005;28;20724;-80
2022/03/02 08:31:42;;;;;;;8.03;4.90;;;;;;;8.34;34.92;96137.81;5032385;28;20308;-81
2022/03/02 08:34:09;;;;;;;6.83;4.83;;;;;;;8.60;34.49;96132.72;5033326;28;20723;-80
2022/03/02 08:36:36;;;;;;;10.70;4.47;;;;;;;8.54;34.22;96128.19;5032869;28;20221;-81
2022/03/02 08:39:06;;;;;;;10.60;4.60;;;;;;;8.54;34.16;96123.84;5032855;28;20252;-81
2022/03/02 08:41:33;;;;;;;5.43;4.57;;;;;;;8.55;34.91;96127.22;5032351;28;20230;-81
2022/03/02 08:44:00;;;;;;;5.47;4.60;;;;;;;8.75;35.29;96120.13;5032129;28;20228;-81
2022/03/02 08:46:28;;;;;;;8.20;4.50;;;;;;;9.04;34.21;96120.63;5033508;28;20202;-81
2022/03/02 08:48:54;;;;;;;5.77;4.57;;;;;;;9.40;33.46;96120.44;5033763;28;20689;-82
2022/03/02 08:51:22;;;;;;;5.50;4.20;;;;;;;9.47;38.19;96123.97;5032341;28;20230;-80
2022/03/02 08:53:50;;;;;;;5.17;3.70;;;;;;;9.89;39.44;96113.63;5032247;28;20218;-81
2022/03/02 08:56:18;;;;;;;5.67;3.80;;;;;;;9.98;34.72;96113.50;5032161;28;20237;-81
2022/03/02 08:58:45;;;;;;;7.10;4.57;;;;;;;9.99;38.39;96099.66;5032648;28;20613;-81
2022/03/02 09:01:15;;;;;;;7.90;4.17;;;;;;;10.18;32.98;96100.31;5031906;28;20230;-81
2022/03/02 09:03:46;;;;;;;6.83;5.00;;;;;;;9.94;32.11;96101.09;5031402;28;20667;-80
2022/03/02 09:06:13;;;;;;;8.97;5.20;;;;;;;10.00;31.65;96096.13;5032531;28;20202;-81
2022/03/02 09:08:40;;;;;;;10.70;5.27;;;;;;;10.31;32.02;96093.72;5031477;28;20612;-80
2022/03/02 09:11:07;;;;;;;6.73;4.90;;;;;;;10.36;31.92;96093.25;5031594;28;20245;-81
2022/03/02 09:13:37;;;;;;;16.93;5.97;;;;;;;10.15;32.16;96096.28;5031576;28;20701;-80
2022/03/02 09:16:04;;;;;;;13.43;6.23;;;;;;;9.75;33.18;96094.47;5031916;28;20217;-81
2022/03/02 09:18:30;;;;;;;16.77;6.77;;;;;;;9.77;34.14;96089.19;5031817;28;20206;-81
2022/03/02 09:21:01;;;;;;;13.00;6.73;;;;;;;9.68;34.21;96084.00;5030956;28;20237;-80
2022/03/02 09:23:30;;;;;;;11.23;7.13;;;;;;;9.72;34.78;96092.22;5031560;28;20202;-81
2022/03/02 09:26:06;;;;;;;11.73;7.33;;;;;;;9.82;34.97;96086.91;5032859;28;20854;-82
2022/03/02 09:28:36;;;;;;;14.87;7.70;;;;;;;9.85;34.23;96089.97;5035791;28;20204;-80
2022/03/02 09:31:04;;;;;;;9.63;7.63;;;;;;;10.01;34.86;96079.69;5035229;28;20240;-80
2022/03/02 09:33:32;;;;;;;13.83;9.03;;;;;;;10.17;35.50;96072.97;5035572;28;20234;-82
2022/03/02 09:36:01;;;;;;;16.33;8.57;;;;;;;10.29;35.61;96075.06;5035839;28;20425;-80
2022/03/02 09:38:30;;;;;;;18.93;10.40;;;;;;;10.34;36.00;96084.88;5035565;28;20672;-81
2022/03/02 09:41:00;;;;;;;18.53;10.50;;;;;;;10.29;35.80;96085.38;5035628;28;20295;-81
2022/03/02 09:43:30;;;;;;;13.47;9.33;;;;;;;10.17;36.28;96083.25;5035562;28;20206;-82
2022/03/02 09:46:02;;;;;;;19.80;9.60;;;;;;;10.02;36.60;96086.44;5036130;28;20260;-82
2022/03/02 09:48:31;;;;;;;13.70;8.87;;;;;;;9.87;37.18;96084.69;5036027;28;20217;-80
2022/03/02 09:51:01;;;;;;;14.97;8.90;;;;;;;9.82;36.66;96087.72;5035330;28;20294;-82
2022/03/02 09:53:29;;;;;;;16.87;8.83;;;;;;;9.79;37.14;96077.78;5035872;28;20226;-80
2022/03/02 09:56:01;;;;;;;13.67;9.17;;;;;;;9.82;36.97;96076.63;5035382;28;20213;-82
2022/03/02 09:58:28;;;;;;;13.00;8.13;;;;;;;9.87;37.06;96090.63;5035451;28;20285;-82
2022/03/02 10:00:56;;;;;;;13.67;8.23;;;;;;;9.85;36.82;96089.97;5033965;28;20775;-81
2022/03/02 10:03:26;;;;;;;11.43;7.90;;;;;;;9.93;36.22;96084.06;5035101;28;20213;-81
2022/03/02 10:05:54;;;;;;;17.53;8.60;;;;;;;10.15;35.96;96078.28;5034894;28;20202;-81
2022/03/02 10:08:23;;;;;;;12.73;8.13;;;;;;;10.36;35.94;96078.59;5035440;28;20202;-81
2022/03/02 10:10:50;;;;;;;15.07;7.80;;;;;;;9.87;34.42;96075.19;5033586;28;20657;-82
2022/03/02 10:13:17;;;;;;;13.60;7.50;;;;;;;9.58;35.70;96080.81;5034620;28;20313;-81
2022/03/02 10:15:45;;;;;;;13.30;7.30;;;;;;;9.39;35.50;96085.41;5034734;28;20689;-81
2022/03/02 10:18:13;;;;;;;11.13;7.60;;;;;;;9.37;36.57;96077.84;5034941;28;20202;-82
2022/03/02 10:20:43;;;;;;;13.80;8.20;;;;;;;9.42;36.64;96077.41;5034369;28;20236;-81
2022/03/02 10:23:33;;;;;;;14.43;8.33;;;;;;;9.42;36.17;96067.91;5034650;28;20236;-80
2022/03/02 10:26:11;;;;;;;12.13;7.07;;;;;;;9.42;35.92;96073.06;5034668;28;20201;-79
2022/03/02 10:28:47;;;;;;;10.93;7.50;;;;;;;9.43;35.98;96079.00;5034205;28;20206;-80
2022/03/02 10:31:47;;;;;;;10.67;7.30;;;;;;;9.46;35.81;96074.31;5034132;28;20244;-81
2022/03/02 10:34:29;;;;;;;10.13;7.53;;;;;;;9.50;36.02;96078.19;5034728;28;20218;-81
2022/03/02 10:37:21;;;;;;;17.50;7.87;;;;;;;9.45;36.05;96080.44;5034478;28;20234;-81
2022/03/02 10:39:52;;;;;;;16.47;8.60;;;;;;;9.52;36.26;96083.19;5027966;28;20212;-80
2022/03/02 10:42:23;;;;;;;10.47;6.97;;;;;;;9.29;35.00;96078.63;5034158;28;20208;-81
2022/03/02 10:45:05;;;;;;;9.87;6.83;;;;;;;9.15;35.85;96086.94;5033804;28;20228;-81
2022/03/02 10:47:34;;;;;;;9.73;7.27;;;;;;;9.08;35.60;96074.84;5034497;28;20198;-80
2022/03/02 10:50:02;;;;;;;9.93;6.63;;;;;;;9.14;36.28;96077.63;5033425;28;20229;-81
2022/03/02 10:52:36;;;;;;;8.40;6.23;;;;;;;9.14;36.59;96077.63;5033384;28;20226;-81
2022/03/02 10:55:06;;;;;;;10.47;7.30;;;;;;;9.20;36.20;96068.50;5033749;28;20214;-81
2022/03/02 10:57:34;;;;;;;7.37;6.40;;;;;;;9.13;36.21;96063.16;5034458;28;20213;-81
2022/03/02 11:00:05;;;;;;;8.10;6.67;;;;;;;9.10;36.49;96063.47;5034120;28;20700;-80
2022/03/02 11:02:34;;;;;;;10.87;6.23;;;;;;;9.04;36.07;96058.16;5033683;28;20202;-80
2022/03/02 11:05:03;;;;;;;6.83;5.97;;;;;;;8.87;36.45;96050.38;5033383;28;20233;-80
2022/03/02 11:07:31;;;;;;;8.90;6.40;;;;;;;8.57;36.83;96044.00;5033234;28;20206;-80
2022/03/02 11:10:01;;;;;;;7.00;6.10;;;;;;;8.59;36.55;96044.66;5033370;28;20202;-81
2022/03/02 11:12:30;;;;;;;7.40;5.80;;;;;;;8.66;36.37;96035.34;5033662;28;20222;-81
2022/03/02 11:15:00;;;;;;;7.70;6.00;;;;;;;8.77;36.47;96036.88;5034439;28;20226;-81
2022/03/02 11:17:27;;;;;;;8.07;5.93;;;;;;;8.76;37.13;96032.69;5034091;28;20225;-81
2022/03/02 11:19:55;;;;;;;7.57;5.90;;;;;;;8.48;36.61;96033.81;5033309;28;20561;-80
2022/03/02 11:22:22;;;;;;;7.20;5.87;;;;;;;8.54;36.97;96034.03;5034015;28;20202;-81
2022/03/02 11:24:55;;;;;;;7.70;5.67;;;;;;;8.34;36.68;96031.81;5033483;28;20237;-80
2022/03/02 11:27:30;;;;;;;12.40;5.63;;;;;;;8.23;37.30;96028.53;5033853;28;20206;-81
2022/03/02 11:30:10;;;;;;;8.00;5.43;;;;;;;8.40;37.24;96028.66;5032993;28;20217;-80
2022/03/02 11:32:38;;;;;;;11.03;5.57;;;;;;;8.45;37.47;96027.25;5033308;28;20586;-80
2022/03/02 11:35:05;;;;;;;8.37;5.60;;;;;;;8.54;36.85;96030.66;5032664;28;20222;-81
2022/03/02 11:37:33;;;;;;;9.83;5.40;;;;;;;8.68;36.98;96029.25;5032765;28;20190;-81
2022/03/02 11:40:02;;;;;;;5.97;5.37;;;;;;;8.82;36.85;96028.72;5032723;28;20244;-80
2022/03/02 11:42:30;;;;;;;7.33;5.83;;;;;;;8.93;36.30;96025.84;5033071;28;20202;-80